Flight Number: EUR3040 Duration: 11:00
Departure: Warsaw Okecie (EPWA) at 08:00 Distance: 4057 Nm
Arrival: Chicago O'Hare (KORD) at 19:00 Equipment: B747

Weather Information
Warszawa-Okecie, Poland (EPWA) 52-10N 020-58E 107M Jan 22, 2018 - 03:00 AM EST / 2018.01.22 0800 UTC
Wind: from the ESE (110 degrees) at 8 MPH (7 KT):0
Visibility: greater than 7 mile(s):0
Sky conditions: mostly cloudy Weather: light snow Temperature: 24 F (-4 C)
Windchill: 15 F (-9 C):1 Dew Point: 23 F (-5 C) Relative Humidity: 92% Pressure (altimeter): 30.09 in. Hg (1019 hPa)
ob: EPWA 220800Z 11007KT 9999 -SN BKN008 M04/M05 Q1019 NOSIG cycle: 8
Sunrise: 06:34 Sunset: 15:01 (UTC)

CHICAGO O'HARE INTERNATIONAL, IL, United States (KORD) 41-59N 087-55W 200M Jan 22, 2018 - 02:51 AM EST / 2018.01.22 0751 UTC
Wind: from the SE (140 degrees) at 9 MPH (8 KT) (direction variable):0
Visibility: 1/8 mile(s):0
Sky conditions: obscured Weather: fog Temperature: 46.0 F (7.8 C) Dew Point: 45.0 F (7.2 C) Relative Humidity: 95% Pressure (altimeter): 29.76 in. Hg (1007 hPa)
ob: KORD 220751Z 14008KT 1/8SM R10L/1400V1800FT FG VV002 08/07 A2976 RMK AO2 TWR VIS 1/4 SLP079 T00780072 cycle: 8
Sunrise: 13:15 Sunset: 22:50 (UTC)

TAF:2018/01/22 06:22 TAF KORD 220520Z 2206/2312 12005KT 1/4SM FG OVC002 FM220900 13007KT 1SM SHRA BR OVC004 TEMPO 2210/2213 -TSRA BR OVC003CB FM221400 16010KT 1SM BR OVC004 FM222000 19012G18KT 2SM -SHRA BR SCT007 OVC015 FM230300 23008KT 1SM BR VCSH SCT007 OVC012

Previous Pireps for this route
Date Aircraft Flight time Fuel used Landing rate On time
2016-05-07B74709.35208501-398Yes
(pireps marked green are flown by you)

Route map